sensor_id;sensor_type;location;lat;lon;timestamp;pressure;altitude;pressure_sealevel;temperature;humidity
70011;BME280;59543;37.950;-122.338;2022-07-23T00:00:41;101151.22;;;20.82;50.16
70011;BME280;59543;37.950;-122.338;2022-07-23T00:03:07;101150.16;;;20.76;49.43
70011;BME280;59543;37.950;-122.338;2022-07-23T00:05:33;101150.41;;;21.08;49.15
70011;BME280;59543;37.950;-122.338;2022-07-23T00:08:00;101158.84;;;21.27;48.94
70011;BME280;59543;37.950;-122.338;2022-07-23T00:10:26;101154.38;;;20.99;48.74
70011;BME280;59543;37.950;-122.338;2022-07-23T00:12:52;101149.31;;;20.83;49.18
70011;BME280;59543;37.950;-122.338;2022-07-23T00:15:19;101149.31;;;20.76;49.63
70011;BME280;59543;37.950;-122.338;2022-07-23T00:17:45;101155.56;;;20.63;50.00
70011;BME280;59543;37.950;-122.338;2022-07-23T00:20:12;101142.31;;;20.60;50.48
70011;BME280;59543;37.950;-122.338;2022-07-23T00:22:46;101149.94;;;20.37;50.67
70011;BME280;59543;37.950;-122.338;2022-07-23T00:25:13;101142.41;;;20.39;50.35
70011;BME280;59543;37.950;-122.338;2022-07-23T00:27:39;101151.09;;;20.07;50.84
70011;BME280;59543;37.950;-122.338;2022-07-23T00:30:06;101149.94;;;20.37;50.96
70011;BME280;59543;37.950;-122.338;2022-07-23T00:32:32;101146.63;;;20.41;51.17
70011;BME280;59543;37.950;-122.338;2022-07-23T00:34:59;101143.47;;;20.44;50.48
70011;BME280;59543;37.950;-122.338;2022-07-23T00:37:25;101141.16;;;20.41;51.00
70011;BME280;59543;37.950;-122.338;2022-07-23T00:39:51;101145.31;;;20.30;51.38
70011;BME280;59543;37.950;-122.338;2022-07-23T00:42:17;101140.16;;;20.07;50.97
70011;BME280;59543;37.950;-122.338;2022-07-23T00:44:43;101144.78;;;20.07;51.71
70011;BME280;59543;37.950;-122.338;2022-07-23T00:47:09;101150.31;;;20.20;51.51
70011;BME280;59543;37.950;-122.338;2022-07-23T00:49:36;101143.16;;;20.19;51.98
70011;BME280;59543;37.950;-122.338;2022-07-23T00:52:05;101140.38;;;20.13;51.63
70011;BME280;59543;37.950;-122.338;2022-07-23T00:54:38;101143.44;;;19.90;51.76
70011;BME280;59543;37.950;-122.338;2022-07-23T00:57:05;101158.78;;;19.97;51.97
70011;BME280;59543;37.950;-122.338;2022-07-23T00:59:31;101156.16;;;20.10;51.93
70011;BME280;59543;37.950;-122.338;2022-07-23T01:02:00;101148.22;;;20.22;51.78
70011;BME280;59543;37.950;-122.338;2022-07-23T01:04:27;101139.75;;;19.76;52.19
70011;BME280;59543;37.950;-122.338;2022-07-23T01:06:53;101147.88;;;19.97;52.03
70011;BME280;59543;37.950;-122.338;2022-07-23T01:09:20;101149.56;;;19.70;52.66
70011;BME280;59543;37.950;-122.338;2022-07-23T01:11:46;101134.09;;;19.77;51.98
70011;BME280;59543;37.950;-122.338;2022-07-23T01:14:15;101138.81;;;19.62;52.95
70011;BME280;59543;37.950;-122.338;2022-07-23T01:16:43;101135.22;;;19.61;53.19
70011;BME280;59543;37.950;-122.338;2022-07-23T01:19:10;101136.19;;;19.75;53.26
70011;BME280;59543;37.950;-122.338;2022-07-23T01:21:42;101134.25;;;19.69;52.39
70011;BME280;59543;37.950;-122.338;2022-07-23T01:24:09;101127.66;;;19.63;52.73
70011;BME280;59543;37.950;-122.338;2022-07-23T01:26:37;101120.22;;;19.72;52.62
70011;BME280;59543;37.950;-122.338;2022-07-23T01:29:04;101122.97;;;19.79;52.43
70011;BME280;59543;37.950;-122.338;2022-07-23T01:31:31;101112.25;;;19.71;52.85
70011;BME280;59543;37.950;-122.338;2022-07-23T01:33:57;101122.19;;;19.57;52.77
70011;BME280;59543;37.950;-122.338;2022-07-23T01:36:24;101114.31;;;19.69;52.68
70011;BME280;59543;37.950;-122.338;2022-07-23T01:38:50;101106.25;;;19.60;53.07
70011;BME280;59543;37.950;-122.338;2022-07-23T01:41:16;101095.34;;;19.32;53.27
70011;BME280;59543;37.950;-122.338;2022-07-23T01:43:43;101097.94;;;19.19;53.46
70011;BME280;59543;37.950;-122.338;2022-07-23T01:46:09;101098.59;;;19.21;53.90
70011;BME280;59543;37.950;-122.338;2022-07-23T01:48:35;101101.28;;;19.42;53.72
70011;BME280;59543;37.950;-122.338;2022-07-23T01:51:02;101099.53;;;19.63;53.02
70011;BME280;59543;37.950;-122.338;2022-07-23T01:53:28;101090.00;;;19.52;52.58
70011;BME280;59543;37.950;-122.338;2022-07-23T01:55:57;101084.63;;;19.59;52.84
70011;BME280;59543;37.950;-122.338;2022-07-23T01:58:24;101090.81;;;19.68;53.01
70011;BME280;59543;37.950;-122.338;2022-07-23T02:00:51;101092.84;;;20.00;51.82
70011;BME280;59543;37.950;-122.338;2022-07-23T02:03:17;101092.31;;;20.18;52.05
70011;BME280;59543;37.950;-122.338;2022-07-23T02:05:43;101102.25;;;20.39;51.05
70011;BME280;59543;37.950;-122.338;2022-07-23T02:08:09;101100.38;;;20.40;50.59
70011;BME280;59543;37.950;-122.338;2022-07-23T02:10:36;101096.34;;;19.87;52.08
70011;BME280;59543;37.950;-122.338;2022-07-23T02:13:02;101086.75;;;19.92;51.67
70011;BME280;59543;37.950;-122.338;2022-07-23T02:15:29;101085.75;;;20.13;50.95
70011;BME280;59543;37.950;-122.338;2022-07-23T02:17:55;101078.78;;;20.03;51.65
70011;BME280;59543;37.950;-122.338;2022-07-23T02:20:22;101076.56;;;20.20;51.18
70011;BME280;59543;37.950;-122.338;2022-07-23T02:22:48;101083.09;;;20.19;51.03
70011;BME280;59543;37.950;-122.338;2022-07-23T02:25:14;101077.25;;;20.42;49.93
70011;BME280;59543;37.950;-122.338;2022-07-23T02:27:41;101072.44;;;20.38;50.14
70011;BME280;59543;37.950;-122.338;2022-07-23T02:30:08;101066.03;;;20.10;50.78
70011;BME280;59543;37.950;-122.338;2022-07-23T02:32:34;101072.19;;;20.32;50.15
70011;BME280;59543;37.950;-122.338;2022-07-23T02:35:01;101076.81;;;20.25;49.97
70011;BME280;59543;37.950;-122.338;2022-07-23T02:37:27;101083.97;;;20.40;50.25
70011;BME280;59543;37.950;-122.338;2022-07-23T02:39:54;101083.97;;;20.40;49.91
70011;BME280;59543;37.950;-122.338;2022-07-23T02:42:20;101089.84;;;20.37;49.96
70011;BME280;59543;37.950;-122.338;2022-07-23T02:44:46;101090.91;;;20.36;49.85
70011;BME280;59543;37.950;-122.338;2022-07-23T02:47:12;101100.97;;;19.87;51.35
70011;BME280;59543;37.950;-122.338;2022-07-23T02:49:39;101099.66;;;19.76;51.49
70011;BME280;59543;37.950;-122.338;2022-07-23T02:52:05;101091.31;;;19.56;51.98
70011;BME280;59543;37.950;-122.338;2022-07-23T02:54:31;101089.53;;;19.14;53.13
70011;BME280;59543;37.950;-122.338;2022-07-23T02:56:57;101097.78;;;18.99;53.56
70011;BME280;59543;37.950;-122.338;2022-07-23T02:59:23;101089.63;;;18.41;54.92
70011;BME280;59543;37.950;-122.338;2022-07-23T03:01:50;101095.38;;;18.17;55.65
70011;BME280;59543;37.950;-122.338;2022-07-23T03:04:16;101099.16;;;18.01;56.51
70011;BME280;59543;37.950;-122.338;2022-07-23T03:06:42;101102.13;;;17.62;57.46
70011;BME280;59543;37.950;-122.338;2022-07-23T03:09:08;101099.59;;;17.45;58.10
70011;BME280;59543;37.950;-122.338;2022-07-23T03:11:35;101101.53;;;17.22;59.00
70011;BME280;59543;37.950;-122.338;2022-07-23T03:14:01;101100.88;;;16.97;59.84
70011;BME280;59543;37.950;-122.338;2022-07-23T03:16:27;101099.13;;;16.73;60.54
70011;BME280;59543;37.950;-122.338;2022-07-23T03:18:53;101098.59;;;16.54;61.60
70011;BME280;59543;37.950;-122.338;2022-07-23T03:21:20;101102.75;;;16.42;61.67
70011;BME280;59543;37.950;-122.338;2022-07-23T03:23:46;101106.53;;;16.33;61.93
70011;BME280;59543;37.950;-122.338;2022-07-23T03:26:12;101103.31;;;16.29;62.00
70011;BME280;59543;37.950;-122.338;2022-07-23T03:28:38;101095.44;;;16.11;62.83
70011;BME280;59543;37.950;-122.338;2022-07-23T03:31:04;101094.41;;;15.65;64.47
70011;BME280;59543;37.950;-122.338;2022-07-23T03:33:31;101104.56;;;15.63;64.64
70011;BME280;59543;37.950;-122.338;2022-07-23T03:35:57;101112.19;;;15.67;64.24
70011;BME280;59543;37.950;-122.338;2022-07-23T03:38:23;101109.66;;;15.58;64.78
70011;BME280;59543;37.950;-122.338;2022-07-23T03:40:49;101116.97;;;15.73;64.49
70011;BME280;59543;37.950;-122.338;2022-07-23T03:43:16;101108.81;;;15.65;64.58
70011;BME280;59543;37.950;-122.338;2022-07-23T03:45:42;101114.72;;;15.61;64.75
70011;BME280;59543;37.950;-122.338;2022-07-23T03:48:08;101105.94;;;15.50;65.30
70011;BME280;59543;37.950;-122.338;2022-07-23T03:50:34;101102.75;;;15.39;65.77
70011;BME280;59543;37.950;-122.338;2022-07-23T03:53:01;101107.00;;;15.17;67.05
70011;BME280;59543;37.950;-122.338;2022-07-23T03:55:27;101100.53;;;15.34;66.53
70011;BME280;59543;37.950;-122.338;2022-07-23T03:57:54;101105.81;;;15.27;66.52
70011;BME280;59543;37.950;-122.338;2022-07-23T04:00:20;101099.72;;;15.17;66.99
70011;BME280;59543;37.950;-122.338;2022-07-23T04:02:46;101094.63;;;14.98;67.36
70011;BME280;59543;37.950;-122.338;2022-07-23T04:05:12;101098.53;;;14.87;68.23
70011;BME280;59543;37.950;-122.338;2022-07-23T04:07:39;101109.91;;;14.99;67.74
70011;BME280;59543;37.950;-122.338;2022-07-23T04:10:06;101106.50;;;14.97;67.93
70011;BME280;59543;37.950;-122.338;2022-07-23T04:12:32;101104.81;;;14.96;68.04
70011;BME280;59543;37.950;-122.338;2022-07-23T04:14:58;101115.66;;;14.96;67.84
70011;BME280;59543;37.950;-122.338;2022-07-23T04:17:24;101119.03;;;14.90;68.22
70011;BME280;59543;37.950;-122.338;2022-07-23T04:19:51;101111.91;;;14.89;68.30
70011;BME280;59543;37.950;-122.338;2022-07-23T04:22:17;101117.34;;;14.80;68.45
70011;BME280;59543;37.950;-122.338;2022-07-23T04:24:43;101109.88;;;14.82;68.73
70011;BME280;59543;37.950;-122.338;2022-07-23T04:27:09;101108.19;;;14.81;69.16
70011;BME280;59543;37.950;-122.338;2022-07-23T04:29:36;101119.53;;;14.93;69.21
70011;BME280;59543;37.950;-122.338;2022-07-23T04:32:02;101113.44;;;14.91;69.39
70011;BME280;59543;37.950;-122.338;2022-07-23T04:34:28;101118.19;;;14.81;69.99
70011;BME280;59543;37.950;-122.338;2022-07-23T04:36:54;101118.16;;;14.73;69.74
70011;BME280;59543;37.950;-122.338;2022-07-23T04:39:21;101126.78;;;14.60;70.36
70011;BME280;59543;37.950;-122.338;2022-07-23T04:41:47;101118.97;;;14.57;70.15
70011;BME280;59543;37.950;-122.338;2022-07-23T04:44:13;101116.28;;;14.57;69.91
70011;BME280;59543;37.950;-122.338;2022-07-23T04:46:40;101126.44;;;14.63;69.51
70011;BME280;59543;37.950;-122.338;2022-07-23T04:49:06;101119.00;;;14.73;68.96
70011;BME280;59543;37.950;-122.338;2022-07-23T04:51:32;101121.38;;;14.68;69.22
70011;BME280;59543;37.950;-122.338;2022-07-23T04:53:58;101130.13;;;14.54;69.44
70011;BME280;59543;37.950;-122.338;2022-07-23T04:56:24;101121.81;;;14.47;70.13
70011;BME280;59543;37.950;-122.338;2022-07-23T04:58:50;101127.38;;;14.46;70.19
70011;BME280;59543;37.950;-122.338;2022-07-23T05:01:17;101117.91;;;14.50;70.18
70011;BME280;59543;37.950;-122.338;2022-07-23T05:03:43;101127.72;;;14.51;69.99
70011;BME280;59543;37.950;-122.338;2022-07-23T05:06:09;101123.78;;;14.37;70.23
70011;BME280;59543;37.950;-122.338;2022-07-23T05:08:35;101121.91;;;14.37;70.45
70011;BME280;59543;37.950;-122.338;2022-07-23T05:11:01;101122.75;;;14.30;70.88
70011;BME280;59543;37.950;-122.338;2022-07-23T05:13:28;101125.59;;;14.20;71.18
70011;BME280;59543;37.950;-122.338;2022-07-23T05:15:54;101133.25;;;14.33;70.62
70011;BME280;59543;37.950;-122.338;2022-07-23T05:18:20;101140.97;;;14.19;71.45
70011;BME280;59543;37.950;-122.338;2022-07-23T05:20:46;101132.53;;;14.23;71.46
70011;BME280;59543;37.950;-122.338;2022-07-23T05:23:13;101130.16;;;14.19;71.42
70011;BME280;59543;37.950;-122.338;2022-07-23T05:25:40;101119.31;;;14.19;71.38
70011;BME280;59543;37.950;-122.338;2022-07-23T05:28:06;101123.84;;;14.11;71.82
70011;BME280;59543;37.950;-122.338;2022-07-23T05:30:32;101120.44;;;14.01;72.15
70011;BME280;59543;37.950;-122.338;2022-07-23T05:32:58;101120.63;;;14.07;71.78
70011;BME280;59543;37.950;-122.338;2022-07-23T05:35:25;101117.03;;;13.99;72.18
70011;BME280;59543;37.950;-122.338;2022-07-23T05:37:51;101111.84;;;14.05;71.74
70011;BME280;59543;37.950;-122.338;2022-07-23T05:40:18;101121.97;;;14.03;72.00
70011;BME280;59543;37.950;-122.338;2022-07-23T05:42:44;101114.38;;;14.07;71.61
70011;BME280;59543;37.950;-122.338;2022-07-23T05:45:11;101117.78;;;14.09;71.82
70011;BME280;59543;37.950;-122.338;2022-07-23T05:47:49;101122.44;;;13.99;72.46
70011;BME280;59543;37.950;-122.338;2022-07-23T05:50:16;101122.44;;;13.99;72.47
70011;BME280;59543;37.950;-122.338;2022-07-23T05:52:43;101116.28;;;13.80;73.08
70011;BME280;59543;37.950;-122.338;2022-07-23T05:55:10;101114.59;;;13.79;73.19
70011;BME280;59543;37.950;-122.338;2022-07-23T05:57:38;101103.06;;;13.77;73.61
70011;BME280;59543;37.950;-122.338;2022-07-23T06:00:07;101104.41;;;13.73;73.57
70011;BME280;59543;37.950;-122.338;2022-07-23T06:02:33;101103.06;;;13.69;73.41
70011;BME280;59543;37.950;-122.338;2022-07-23T06:04:59;101105.75;;;13.69;73.16
70011;BME280;59543;37.950;-122.338;2022-07-23T06:07:26;101099.41;;;13.52;73.75
70011;BME280;59543;37.950;-122.338;2022-07-23T06:09:52;101092.44;;;13.49;73.40
70011;BME280;59543;37.950;-122.338;2022-07-23T06:12:18;101086.72;;;13.53;73.68
70011;BME280;59543;37.950;-122.338;2022-07-23T06:14:44;101087.44;;;13.55;73.79
70011;BME280;59543;37.950;-122.338;2022-07-23T06:17:10;101089.09;;;13.56;73.90
70011;BME280;59543;37.950;-122.338;2022-07-23T06:19:37;101088.38;;;13.45;74.59
70011;BME280;59543;37.950;-122.338;2022-07-23T06:22:03;101082.03;;;13.55;74.17
70011;BME280;59543;37.950;-122.338;2022-07-23T06:24:29;101085.38;;;13.48;74.33
70011;BME280;59543;37.950;-122.338;2022-07-23T06:26:55;101087.00;;;13.41;74.32
70011;BME280;59543;37.950;-122.338;2022-07-23T06:29:22;101092.19;;;13.35;74.24
70011;BME280;59543;37.950;-122.338;2022-07-23T06:31:48;101089.88;;;13.22;75.06
70011;BME280;59543;37.950;-122.338;2022-07-23T06:34:14;101079.06;;;13.22;75.30
70011;BME280;59543;37.950;-122.338;2022-07-23T06:36:40;101088.19;;;13.21;75.48
70011;BME280;59543;37.950;-122.338;2022-07-23T06:39:06;101088.34;;;13.19;75.30
70011;BME280;59543;37.950;-122.338;2022-07-23T06:41:33;101091.84;;;13.12;75.61
70011;BME280;59543;37.950;-122.338;2022-07-23T06:43:59;101095.38;;;13.12;75.33
70011;BME280;59543;37.950;-122.338;2022-07-23T06:46:25;101096.63;;;13.18;74.92
70011;BME280;59543;37.950;-122.338;2022-07-23T06:48:51;101089.84;;;12.96;75.91
70011;BME280;59543;37.950;-122.338;2022-07-23T06:51:18;101098.72;;;12.88;75.82
70011;BME280;59543;37.950;-122.338;2022-07-23T06:53:44;101104.28;;;12.87;75.65
70011;BME280;59543;37.950;-122.338;2022-07-23T06:56:10;101107.50;;;12.90;75.85
70011;BME280;59543;37.950;-122.338;2022-07-23T06:58:37;101104.03;;;12.80;76.33
70011;BME280;59543;37.950;-122.338;2022-07-23T07:01:03;101095.50;;;12.85;76.34
70011;BME280;59543;37.950;-122.338;2022-07-23T07:03:29;101096.78;;;12.80;76.75
70011;BME280;59543;37.950;-122.338;2022-07-23T07:05:55;101103.03;;;12.81;76.54
70011;BME280;59543;37.950;-122.338;2022-07-23T07:08:23;101101.75;;;12.67;77.33
70011;BME280;59543;37.950;-122.338;2022-07-23T07:10:50;101103.28;;;12.70;77.09
70011;BME280;59543;37.950;-122.338;2022-07-23T07:13:16;101100.09;;;12.56;77.19
70011;BME280;59543;37.950;-122.338;2022-07-23T07:15:42;101099.50;;;12.63;77.00
70011;BME280;59543;37.950;-122.338;2022-07-23T07:18:08;101112.34;;;12.51;77.39
70011;BME280;59543;37.950;-122.338;2022-07-23T07:20:35;101107.13;;;12.49;77.37
70011;BME280;59543;37.950;-122.338;2022-07-23T07:23:01;101105.81;;;12.53;77.79
70011;BME280;59543;37.950;-122.338;2022-07-23T07:25:27;101102.56;;;12.50;78.43
70011;BME280;59543;37.950;-122.338;2022-07-23T07:27:53;101094.00;;;12.54;78.19
70011;BME280;59543;37.950;-122.338;2022-07-23T07:30:20;101095.94;;;12.62;78.41
70011;BME280;59543;37.950;-122.338;2022-07-23T07:32:46;101095.41;;;12.58;78.75
70011;BME280;59543;37.950;-122.338;2022-07-23T07:35:13;101086.59;;;12.56;78.99
70011;BME280;59543;37.950;-122.338;2022-07-23T07:37:39;101089.53;;;12.63;78.58
70011;BME280;59543;37.950;-122.338;2022-07-23T07:40:06;101086.69;;;12.65;78.36
70011;BME280;59543;37.950;-122.338;2022-07-23T07:42:32;101095.25;;;12.78;78.09
70011;BME280;59543;37.950;-122.338;2022-07-23T07:44:58;101092.72;;;12.76;78.01
70011;BME280;59543;37.950;-122.338;2022-07-23T07:47:25;101099.56;;;12.71;78.18
70011;BME280;59543;37.950;-122.338;2022-07-23T07:49:51;101106.44;;;12.65;78.12
70011;BME280;59543;37.950;-122.338;2022-07-23T07:52:17;101106.00;;;12.70;78.00
70011;BME280;59543;37.950;-122.338;2022-07-23T07:54:43;101103.81;;;12.73;78.02
70011;BME280;59543;37.950;-122.338;2022-07-23T07:57:09;101101.44;;;12.70;78.33
70011;BME280;59543;37.950;-122.338;2022-07-23T07:59:36;101109.44;;;12.80;77.86
70011;BME280;59543;37.950;-122.338;2022-07-23T08:02:02;101094.47;;;12.68;78.12
70011;BME280;59543;37.950;-122.338;2022-07-23T08:04:28;101097.72;;;12.71;77.97
70011;BME280;59543;37.950;-122.338;2022-07-23T08:06:54;101095.63;;;12.65;78.30
70011;BME280;59543;37.950;-122.338;2022-07-23T08:09:20;101092.53;;;12.60;78.71
70011;BME280;59543;37.950;-122.338;2022-07-23T08:11:47;101105.66;;;12.55;78.89
70011;BME280;59543;37.950;-122.338;2022-07-23T08:14:13;101095.78;;;12.46;79.07
70011;BME280;59543;37.950;-122.338;2022-07-23T08:16:39;101098.84;;;12.51;78.91
70011;BME280;59543;37.950;-122.338;2022-07-23T08:19:05;101108.66;;;12.34;78.73
70011;BME280;59543;37.950;-122.338;2022-07-23T08:21:31;101106.69;;;12.26;78.97
70011;BME280;59543;37.950;-122.338;2022-07-23T08:23:58;101107.84;;;12.24;78.53
70011;BME280;59543;37.950;-122.338;2022-07-23T08:26:24;101108.69;;;12.24;78.38
70011;BME280;59543;37.950;-122.338;2022-07-23T08:28:50;101110.09;;;12.28;78.45
70011;BME280;59543;37.950;-122.338;2022-07-23T08:31:16;101117.84;;;12.13;79.19
70011;BME280;59543;37.950;-122.338;2022-07-23T08:33:43;101100.66;;;12.15;79.25
70011;BME280;59543;37.950;-122.338;2022-07-23T08:36:10;101103.66;;;12.11;79.40
70011;BME280;59543;37.950;-122.338;2022-07-23T08:38:36;101098.38;;;12.20;78.98
70011;BME280;59543;37.950;-122.338;2022-07-23T08:41:02;101096.09;;;12.15;78.88
70011;BME280;59543;37.950;-122.338;2022-07-23T08:43:31;101095.81;;;12.18;79.36
70011;BME280;59543;37.950;-122.338;2022-07-23T08:46:00;101092.66;;;12.23;78.53
70011;BME280;59543;37.950;-122.338;2022-07-23T08:48:29;101079.00;;;12.06;79.07
70011;BME280;59543;37.950;-122.338;2022-07-23T08:50:57;101092.94;;;12.02;79.58
70011;BME280;59543;37.950;-122.338;2022-07-23T08:53:24;101084.44;;;11.97;79.55
70011;BME280;59543;37.950;-122.338;2022-07-23T08:55:53;101092.06;;;12.01;78.91
70011;BME280;59543;37.950;-122.338;2022-07-23T08:58:20;101089.22;;;12.03;79.43
70011;BME280;59543;37.950;-122.338;2022-07-23T09:00:47;101091.25;;;11.91;80.06
70011;BME280;59543;37.950;-122.338;2022-07-23T09:03:23;101083.78;;;11.85;80.40
70011;BME280;59543;37.950;-122.338;2022-07-23T09:05:50;101089.63;;;11.71;80.85
70011;BME280;59543;37.950;-122.338;2022-07-23T09:08:24;101093.97;;;11.81;80.58
70011;BME280;59543;37.950;-122.338;2022-07-23T09:11:02;101095.56;;;11.74;80.97
70011;BME280;59543;37.950;-122.338;2022-07-23T09:18:52;101105.59;;;11.82;81.04
70011;BME280;59543;37.950;-122.338;2022-07-23T09:23:58;101121.06;;;11.89;80.51
70011;BME280;59543;37.950;-122.338;2022-07-23T09:26:32;101115.69;;;11.80;80.41
70011;BME280;59543;37.950;-122.338;2022-07-23T09:34:32;101125.91;;;11.76;80.54
70011;BME280;59543;37.950;-122.338;2022-07-23T09:37:14;101118.69;;;11.77;80.56
70011;BME280;59543;37.950;-122.338;2022-07-23T09:39:41;101128.59;;;11.76;80.32
70011;BME280;59543;37.950;-122.338;2022-07-23T09:42:16;101120.81;;;11.73;81.11
70011;BME280;59543;37.950;-122.338;2022-07-23T09:44:48;101124.78;;;11.88;80.39
70011;BME280;59543;37.950;-122.338;2022-07-23T09:47:15;101118.50;;;11.88;80.19
70011;BME280;59543;37.950;-122.338;2022-07-23T09:50:06;101120.63;;;11.94;80.30
70011;BME280;59543;37.950;-122.338;2022-07-23T09:52:44;101124.91;;;11.87;80.50
70011;BME280;59543;37.950;-122.338;2022-07-23T09:55:12;101128.69;;;11.94;80.23
70011;BME280;59543;37.950;-122.338;2022-07-23T09:57:41;101127.44;;;11.98;80.16
70011;BME280;59543;37.950;-122.338;2022-07-23T10:00:10;101124.47;;;11.92;80.38
70011;BME280;59543;37.950;-122.338;2022-07-23T10:02:37;101135.34;;;12.00;80.06
70011;BME280;59543;37.950;-122.338;2022-07-23T10:05:04;101138.47;;;12.05;79.67
70011;BME280;59543;37.950;-122.338;2022-07-23T10:07:37;101127.44;;;11.98;79.68
70011;BME280;59543;37.950;-122.338;2022-07-23T10:10:05;101129.13;;;11.99;79.82
70011;BME280;59543;37.950;-122.338;2022-07-23T10:12:31;101130.81;;;12.00;79.32
70011;BME280;59543;37.950;-122.338;2022-07-23T10:15:16;101123.31;;;11.94;79.58
70011;BME280;59543;37.950;-122.338;2022-07-23T10:17:42;101119.63;;;11.95;79.69
70011;BME280;59543;37.950;-122.338;2022-07-23T10:20:09;101114.59;;;12.10;79.40
70011;BME280;59543;37.950;-122.338;2022-07-23T10:22:38;101109.81;;;12.04;79.99
70011;BME280;59543;37.950;-122.338;2022-07-23T10:25:22;101123.06;;;12.15;79.53
70011;BME280;59543;37.950;-122.338;2022-07-23T10:30:55;101142.41;;;12.10;79.13
70011;BME280;59543;37.950;-122.338;2022-07-23T10:33:30;101136.19;;;12.00;79.38
70011;BME280;59543;37.950;-122.338;2022-07-23T10:38:42;101124.78;;;11.88;80.48
70011;BME280;59543;37.950;-122.338;2022-07-23T10:41:13;101126.84;;;12.04;79.64
70011;BME280;59543;37.950;-122.338;2022-07-23T10:43:40;101119.88;;;12.02;79.33
70011;BME280;59543;37.950;-122.338;2022-07-23T10:46:24;101120.97;;;12.09;79.02
70011;BME280;59543;37.950;-122.338;2022-07-23T10:49:22;101114.94;;;11.97;79.30
70011;BME280;59543;37.950;-122.338;2022-07-23T10:54:37;101112.53;;;11.94;79.83
70011;BME280;59543;37.950;-122.338;2022-07-23T10:57:08;101109.00;;;11.94;79.61
70011;BME280;59543;37.950;-122.338;2022-07-23T11:02:32;101114.69;;;11.90;79.24
70011;BME280;59543;37.950;-122.338;2022-07-23T11:05:06;101108.44;;;11.90;79.58
70011;BME280;59543;37.950;-122.338;2022-07-23T11:07:33;101110.00;;;11.83;79.98
70011;BME280;59543;37.950;-122.338;2022-07-23T11:10:00;101108.59;;;11.88;79.78
70011;BME280;59543;37.950;-122.338;2022-07-23T11:15:08;101108.47;;;11.80;80.00
70011;BME280;59543;37.950;-122.338;2022-07-23T11:17:37;101122.53;;;11.74;79.90
70011;BME280;59543;37.950;-122.338;2022-07-23T11:25:35;101126.63;;;11.78;80.36
70011;BME280;59543;37.950;-122.338;2022-07-23T11:28:17;101130.16;;;11.79;80.46
70011;BME280;59543;37.950;-122.338;2022-07-23T11:30:47;101117.44;;;11.71;80.81
70011;BME280;59543;37.950;-122.338;2022-07-23T11:35:45;101117.47;;;11.61;80.97
70011;BME280;59543;37.950;-122.338;2022-07-23T11:38:22;101116.88;;;11.67;80.64
70011;BME280;59543;37.950;-122.338;2022-07-23T11:40:52;101123.97;;;11.68;81.33
70011;BME280;59543;37.950;-122.338;2022-07-23T11:43:20;101118.69;;;11.67;81.42
70011;BME280;59543;37.950;-122.338;2022-07-23T11:45:51;101131.88;;;11.70;81.89
70011;BME280;59543;37.950;-122.338;2022-07-23T11:48:28;101129.06;;;11.72;81.58
70011;BME280;59543;37.950;-122.338;2022-07-23T11:50:57;101120.66;;;11.75;81.17
70011;BME280;59543;37.950;-122.338;2022-07-23T11:53:24;101124.09;;;11.67;81.64
70011;BME280;59543;37.950;-122.338;2022-07-23T11:55:51;101121.97;;;11.71;81.10
70011;BME280;59543;37.950;-122.338;2022-07-23T11:58:18;101127.06;;;11.74;81.17
70011;BME280;59543;37.950;-122.338;2022-07-23T12:00:44;101135.75;;;11.67;81.54
70011;BME280;59543;37.950;-122.338;2022-07-23T12:03:10;101134.44;;;11.72;81.38
70011;BME280;59543;37.950;-122.338;2022-07-23T12:05:38;101129.06;;;11.72;81.40
70011;BME280;59543;37.950;-122.338;2022-07-23T12:08:06;101135.59;;;11.69;81.80
70011;BME280;59543;37.950;-122.338;2022-07-23T12:10:38;101132.03;;;11.68;82.19
70011;BME280;59543;37.950;-122.338;2022-07-23T12:13:14;101136.41;;;11.79;81.92
70011;BME280;59543;37.950;-122.338;2022-07-23T12:15:56;101141.94;;;11.78;82.16
70011;BME280;59543;37.950;-122.338;2022-07-23T12:18:25;101128.59;;;11.76;82.00
70011;BME280;59543;37.950;-122.338;2022-07-23T12:20:56;101133.31;;;11.74;82.49
70011;BME280;59543;37.950;-122.338;2022-07-23T12:23:25;101131.28;;;11.76;82.51
70011;BME280;59543;37.950;-122.338;2022-07-23T12:25:52;101131.16;;;11.78;82.49
70011;BME280;59543;37.950;-122.338;2022-07-23T12:28:20;101136.84;;;11.75;82.28
70011;BME280;59543;37.950;-122.338;2022-07-23T12:33:35;101138.81;;;11.73;81.54
70011;BME280;59543;37.950;-122.338;2022-07-23T12:36:04;101140.97;;;11.69;81.51
70011;BME280;59543;37.950;-122.338;2022-07-23T12:38:48;101131.03;;;11.79;81.45
70011;BME280;59543;37.950;-122.338;2022-07-23T12:41:15;101133.06;;;11.67;81.40
70011;BME280;59543;37.950;-122.338;2022-07-23T12:43:43;101137.84;;;11.64;81.35
70011;BME280;59543;37.950;-122.338;2022-07-23T12:46:15;101151.81;;;11.40;82.16
70011;BME280;59543;37.950;-122.338;2022-07-23T12:51:25;101146.09;;;11.62;81.42
70011;BME280;59543;37.950;-122.338;2022-07-23T12:53:54;101160.56;;;11.52;81.68
70011;BME280;59543;37.950;-122.338;2022-07-23T12:56:30;101162.84;;;11.56;81.53
70011;BME280;59543;37.950;-122.338;2022-07-23T12:59:06;101158.47;;;11.55;82.09
70011;BME280;59543;37.950;-122.338;2022-07-23T13:01:40;101155.47;;;11.58;81.82
70011;BME280;59543;37.950;-122.338;2022-07-23T13:04:14;101155.19;;;11.61;81.55